CheckWX is a tool to help pilots better visualize weather data.  It is not intended as a substitute for an official pre-flight weather briefing.

14:40:31 UTC

EGPH TAF
Edinburgh Airport
Edinburgh, United Kingdom
TAF AMD EGPH 241314Z 2413/2512 06014KT 7000 BKN007 TEMPO 2413/2415 BKN004 BECMG 2415/2418 3000 BR BKN003 PROB40 TEMPO 2419/2423 0400 FG VV/// BECMG 2500/2503 15005KT 9999 NSW SCT012 PROB30 TEMPO 2503/2506 BKN012

Apr-24@
13:00 UTC

Apr-24 @ 13:00 UTC

Apr-24@
15:00 UTC

Apr-24 @ 15:00 UTC

TAF AMD EGPH 241314Z 2413/2512 06014KT 7000 BKN007
Wind
  • 060° at 14 KTS
Cloud Levels
  • Broken at 700' AGL

Apr-24@
13:00 UTC

Apr-24 @ 13:00 UTC

Apr-24@
15:00 UTC

Apr-24 @ 15:00 UTC

TEMPO 2413/2415 BKN004

Temporary

Temporary Changes expected for less than half the time period

Cloud Levels
  • Broken at 400' AGL

Apr-24@
15:00 UTC

Apr-24 @ 15:00 UTC

Apr-25@
00:00 UTC

Apr-25 @ 00:00 UTC

BECMG 2415/2418 3000 BR BKN003

Becoming

Becoming Conditions expected by Wed, Apr 24, 2019 @ 18:00 UTC

Wind
  • 060° at 14 KTS
Conditions
Mist
Cloud Levels
  • Broken at 300' AGL

Apr-24@
19:00 UTC

Apr-24 @ 19:00 UTC

Apr-24@
23:00 UTC

Apr-24 @ 23:00 UTC

PROB40 TEMPO 2419/2423 0400 FG VV///

Temporary - 40% Likelihood

Temporary - 40% Likelihood during this time.

Conditions
Fog

Apr-25@
00:00 UTC

Apr-25 @ 00:00 UTC

Apr-25@
12:00 UTC

Apr-25 @ 12:00 UTC

BECMG 2500/2503 15005KT 9999 NSW SCT012

Becoming

Becoming Conditions expected by Thu, Apr 25, 2019 @ 03:00 UTC

Wind
  • 150° at 5 KTS
Conditions
No significant weather
Cloud Levels
  • Scattered at 1,200' AGL

Apr-25@
03:00 UTC

Apr-25 @ 03:00 UTC

Apr-25@
06:00 UTC

Apr-25 @ 06:00 UTC

PROB30 TEMPO 2503/2506 BKN012

Temporary - 30% Likelihood

Temporary - 30% Likelihood during this time.

Cloud Levels
  • Broken at 1,200' AGL